Date,TemperatureHighF,TemperatureAvgF,TemperatureLowF,DewpointHighF,DewpointAvgF,DewpointLowF,HumidityHigh,HumidityAvg,HumidityLow,PressureMaxIn,PressureMinIn,WindSpeedMaxMPH,WindSpeedAvgMPH,GustSpeedMaxMPH,PrecipitationSumIn
2013-1-1,35,29,16,27,20,8,78,69,57,29.66,29.49,8,3,14,0.01
2013-1-2,25,19,12,16,11,6,80,71,58,29.85,29.65,7,1,10,0.00
2013-1-3,24,16,4,16,7,-2,75,68,60,29.88,29.74,6,1,9,0.00
2013-1-4,34,30,23,24,21,16,81,70,59,29.73,29.58,8,2,13,0.01
2013-1-5,38,31,26,26,21,18,79,68,55,29.95,29.62,8,2,14,0.01
2013-1-6,40,32,26,29,26,20,92,76,63,29.90,29.64,6,1,8,0.01
2013-1-7,35,32,27,29,24,20,85,73,59,30.07,29.70,9,2,15,0.00
2013-1-8,43,35,27,30,26,21,79,71,58,30.08,30.00,6,2,12,0.02
2013-1-9,42,36,28,35,30,24,87,79,64,30.06,29.78,8,1,14,0.15
2013-1-10,42,37,31,33,25,22,82,62,48,30.23,29.84,12,4,20,0.03
2013-1-11,39,32,28,38,28,22,98,85,72,30.22,29.82,6,1,8,0.43
2013-1-12,42,39,37,42,39,37,99,99,98,29.86,29.78,4,0,6,0.09
2013-1-13,44,41,37,44,41,37,100,99,99,29.84,29.68,6,1,9,0.01
2013-1-14,49,43,33,49,39,25,100,88,67,29.98,29.56,9,3,16,0.01
2013-1-15,35,32,29,26,25,22,81,74,66,30.02,29.89,7,2,12,0.00
2013-1-16,31,30,28,31,28,23,98,95,71,29.91,29.49,4,0,6,0.00
2013-1-17,37,32,24,31,27,13,98,82,63,29.79,29.56,7,2,12,0.20
2013-1-18,24,20,16,14,7,1,68,57,42,30.14,29.71,10,3,15,0.00
2013-1-19,42,34,21,29,21,10,66,59,53,30.07,29.58,7,2,12,0.10
2013-1-20,48,37,24,30,23,9,77,58,35,29.65,29.30,10,4,20,0.06
2013-1-21,25,22,19,21,13,5,93,69,50,29.76,29.47,9,1,15,0.00
2013-1-22,20,15,8,17,3,-6,90,60,40,29.83,29.47,9,2,14,0.00
2013-1-23,14,8,3,-1,-4,-7,72,57,40,29.89,29.81,8,2,16,0.00
2013-1-24,17,9,0,2,-3,-8,75,59,39,30.03,29.83,12,3,22,0.00
2013-1-25,18,13,6,12,3,-1,90,66,43,30.08,29.75,7,1,9,0.00
2013-1-26,21,14,9,12,6,2,91,71,51,30.02,29.72,10,3,18,0.00
2013-1-27,28,19,10,9,4,-1,85,54,30,30.19,30.02,10,2,20,0.00
2013-1-28,31,24,18,30,18,-1,97,77,39,30.18,29.68,5,1,6,0.00
2013-1-29,36,34,30,36,33,30,98,97,95,29.84,29.68,5,1,8,0.20
2013-1-30,54,46,33,54,45,33,100,99,98,29.79,29.06,8,3,12,0.04
2013-1-31,57,40,26,56,30,12,100,69,43,29.35,28.68,14,6,28,0.70
2013-2-1,29,23,19,13,10,4,66,55,37,29.85,29.35,12,4,18,0.00
2013-2-2,27,20,14,17,10,4,92,66,39,29.94,29.75,8,2,12,0.00
2013-2-3,28,21,15,18,15,12,92,78,59,29.75,29.47,6,1,7,0.02
2013-2-4,26,21,17,19,11,5,93,66,43,29.65,29.46,8,2,12,0.00
2013-2-5,27,23,20,22,18,9,94,83,61,29.69,29.60,4,0,6,0.01
2013-2-6,34,27,21,25,19,2,96,72,39,30.03,29.60,8,2,13,0.04
2013-2-7,31,23,16,15,6,2,67,50,36,30.20,30.01,8,2,12,0.00
2013-2-8,28,26,22,27,22,14,96,87,63,30.06,29.34,16,6,30,0.00
2013-2-9,21,19,13,20,17,10,95,93,86,29.99,29.42,14,8,25,0.00
2013-2-10,30,20,10,27,17,8,91,87,79,30.17,29.99,9,2,14,0.07
2013-2-11,41,34,24,40,33,20,99,96,85,30.03,29.35,6,2,10,0.25
2013-2-12,41,36,33,37,29,24,99,78,59,29.61,29.36,8,2,15,0.02
2013-2-13,40,33,26,29,23,20,95,68,50,29.60,29.38,6,1,7,0.00
2013-2-14,40,33,26,29,25,22,95,76,51,29.67,29.39,6,1,10,0.07
2013-2-15,48,39,29,33,29,26,92,70,47,29.68,29.58,6,2,9,0.00
2013-2-16,36,29,25,30,22,15,96,75,56,29.64,29.40,8,3,12,0.06
2013-2-17,26,20,13,16,5,0,68,53,34,29.57,29.27,14,6,27,0.00
2013-2-18,26,16,10,9,4,1,67,60,45,29.90,29.56,8,4,14,0.00
2013-2-19,42,33,23,38,26,8,98,75,47,29.90,29.32,7,2,12,0.19
2013-2-20,35,26,20,32,16,8,88,64,49,29.59,29.32,10,4,15,0.00
2013-2-21,29,22,18,15,13,11,77,67,54,30.01,29.57,12,5,21,0.00
2013-2-22,37,27,17,26,20,13,89,75,56,30.10,29.96,8,2,15,0.00
2013-2-23,36,32,30,35,31,26,97,93,82,29.98,29.51,6,2,12,0.13
2013-2-24,39,34,30,36,31,24,98,89,71,29.62,29.41,10,3,16,0.01
2013-2-25,43,34,28,28,25,24,85,71,52,29.92,29.62,9,3,15,0.00
2013-2-26,40,34,29,30,26,24,92,73,54,29.99,29.66,8,2,15,0.04
2013-2-27,41,37,32,40,36,29,98,96,92,29.66,29.20,12,4,22,0.92
2013-2-28,45,38,32,39,35,32,98,90,71,29.30,29.21,5,1,9,0.01
2013-3-1,42,35,31,32,30,25,93,80,60,29.43,29.25,9,4,15,0.00
2013-3-2,35,31,25,26,24,21,87,77,68,29.43,29.36,9,4,13,0.00
2013-3-3,30,26,24,25,21,16,90,80,66,29.41,29.34,10,5,18,0.00
2013-3-4,38,29,24,24,21,18,83,72,55,29.55,29.40,13,5,25,0.00
2013-3-5,43,34,26,28,25,21,84,68,51,29.72,29.55,10,3,16,0.00
2013-3-6,38,35,33,35,30,27,93,81,69,29.69,29.61,17,6,27,0.01
2013-3-7,34,32,29,31,28,25,97,87,77,29.75,29.63,15,5,25,0.01
2013-3-8,36,31,27,31,28,25,97,88,72,29.88,29.65,10,3,20,0.16
2013-3-9,49,37,26,27,24,21,82,62,39,30.00,29.87,7,2,9,0.15
2013-3-10,50,38,29,33,29,24,90,72,47,30.06,29.97,5,1,7,0.00
2013-3-11,51,41,33,43,37,31,97,87,63,30.00,29.77,7,2,10,0.00
2013-3-12,52,48,38,51,46,35,98,96,88,29.78,29.35,10,4,16,0.84
2013-3-13,46,38,33,35,28,21,89,67,40,29.53,29.43,9,3,14,0.00
2013-3-14,34,28,24,28,16,9,89,61,45,29.58,29.48,13,4,23,0.00
2013-3-15,38,30,21,29,18,8,82,61,40,29.61,29.39,8,3,15,0.00
2013-3-16,35,30,25,27,21,14,91,70,44,29.58,29.42,8,2,14,0.00
2013-3-17,34,27,21,25,13,6,93,58,32,30.00,29.58,10,3,18,0.00
2013-3-18,33,26,18,26,11,4,95,56,34,30.11,29.76,9,3,14,0.00
2013-3-19,36,31,27,34,30,26,97,95,89,29.76,29.36,10,3,24,0.23
2013-3-20,38,31,25,28,20,16,91,66,43,29.51,29.45,8,2,13,0.14
2013-3-21,36,30,26,22,16,8,79,59,34,29.50,29.30,8,2,13,0.07
2013-3-22,36,29,21,23,18,12,77,65,51,29.51,29.36,8,2,13,0.03
2013-3-23,42,34,28,24,21,16,76,60,37,29.57,29.44,13,4,22,0.00
2013-3-24,42,34,26,25,22,17,73,60,47,29.59,29.40,10,3,15,0.00
2013-3-25,44,36,31,28,25,23,73,63,48,29.42,29.14,12,4,20,0.00
2013-3-26,46,38,33,30,26,22,81,64,42,29.52,29.25,9,2,15,0.00
2013-3-27,51,39,30,27,23,20,70,54,32,29.61,29.51,9,2,18,0.00
2013-3-28,47,39,32,34,30,26,81,71,55,29.76,29.60,9,3,13,0.00
2013-3-29,53,42,34,33,29,27,77,60,39,29.79,29.70,8,2,16,0.00
2013-3-30,55,43,31,32,25,18,85,53,28,29.82,29.73,8,1,12,0.00
2013-3-31,53,44,35,40,27,18,95,54,34,29.80,29.35,8,2,12,0.09
2013-4-1,58,43,31,44,35,13,98,77,42,29.53,29.26,10,2,22,0.05
2013-4-2,38,32,26,19,13,8,68,48,30,29.71,29.53,10,3,18,0.00
2013-4-3,44,33,26,17,13,10,61,45,27,29.95,29.70,10,4,18,0.00
2013-4-4,51,37,25,29,19,14,77,50,25,30.03,29.75,8,3,12,0.00
2013-4-5,59,44,35,30,24,16,79,48,21,29.75,29.38,12,4,20,0.00
2013-4-6,46,37,28,23,11,4,68,37,19,29.99,29.63,13,4,21,0.00
2013-4-7,53,42,32,41,31,16,93,66,39,29.98,29.68,10,3,15,0.00
2013-4-8,66,53,41,42,39,36,96,64,34,29.76,29.65,7,2,12,0.00
2013-4-9,73,60,46,51,44,40,95,60,33,29.68,29.56,10,3,18,0.00
2013-4-10,64,55,47,53,48,39,97,80,54,29.63,29.48,10,2,16,0.24
2013-4-11,54,49,42,52,43,28,98,82,46,29.75,29.46,7,2,10,0.00
2013-4-12,42,38,36,36,34,32,95,86,68,29.75,29.50,10,4,20,0.45
2013-4-13,51,48,44,37,35,33,66,60,53,29.62,29.53,4,1,6,0.07
2013-4-14,50,44,37,35,29,24,74,57,38,29.90,29.61,10,2,21,0.00
2013-4-15,57,44,34,34,29,24,73,56,39,30.06,29.89,7,2,12,0.00
2013-4-16,62,50,38,51,44,32,95,81,61,30.05,29.78,9,3,15,0.02
2013-4-17,64,54,46,52,37,29,95,57,31,29.97,29.78,10,3,14,0.01
2013-4-18,58,50,42,46,36,27,90,62,39,30.03,29.79,9,3,12,0.00
2013-4-19,70,60,49,62,57,46,99,91,73,29.79,29.31,10,4,13,0.15
2013-4-20,61,48,37,60,35,24,97,66,33,29.95,29.31,10,3,14,0.32
2013-4-21,51,40,30,25,21,17,72,48,30,30.30,29.94,11,3,20,0.00
2013-4-22,56,43,33,35,29,21,84,61,29,30.36,30.19,10,2,15,0.00
2013-4-23,46,40,33,39,34,28,92,82,74,30.19,29.79,9,3,14,0.00
2013-4-24,71,52,39,48,43,37,95,75,43,29.79,29.49,7,3,12,0.00
2013-4-25,60,51,42,50,33,23,95,53,26,29.93,29.51,10,3,15,0.00
2013-4-26,62,51,41,36,28,23,51,42,28,30.08,29.93,8,2,12,0.00
2013-4-27,66,52,39,34,29,23,64,43,21,30.09,29.94,8,2,12,0.00
2013-4-28,69,54,41,42,35,29,86,51,32,29.98,29.86,8,2,12,0.00
2013-4-29,56,51,47,46,41,32,86,68,52,29.92,29.87,6,2,9,0.00
2013-4-30,68,55,47,42,33,22,81,48,20,30.00,29.89,6,2,9,0.00
2013-5-1,71,56,44,42,33,23,74,44,24,30.15,30.00,8,1,14,0.00
2013-5-2,77,60,46,44,41,37,78,52,26,30.13,29.96,7,1,13,0.00
2013-5-3,68,56,46,43,37,32,84,51,29,30.12,30.00,9,2,15,0.00
2013-5-4,73,56,42,45,42,38,92,65,30,30.04,29.87,8,2,12,0.00
2013-5-5,70,50,38,43,38,32,96,69,26,29.96,29.86,6,1,8,0.00
2013-5-6,72,53,39,50,45,38,98,76,44,29.95,29.80,5,1,8,0.00
2013-5-7,76,61,48,56,51,46,95,73,39,29.84,29.75,5,1,10,0.00
2013-5-8,65,59,54,62,57,53,98,94,82,29.80,29.66,6,1,15,0.33
2013-5-9,64,56,51,59,55,50,99,96,81,29.69,29.54,3,0,6,0.38
2013-5-10,78,64,52,60,55,51,99,75,43,29.66,29.55,5,0,6,0.00
2013-5-11,63,60,57,62,59,54,99,96,81,29.55,29.34,3,0,6,0.28
2013-5-12,66,56,46,59,46,26,99,71,31,29.54,29.29,8,1,14,0.01
2013-5-13,53,45,39,34,30,26,76,58,36,29.75,29.54,6,1,12,0.00
2013-5-14,57,46,34,34,29,25,88,56,31,29.77,29.68,6,1,10,0.00
2013-5-15,61,50,38,53,43,29,95,78,55,29.74,29.35,4,0,10,0.05
2013-5-16,81,65,50,54,46,36,97,57,24,29.48,29.36,7,1,13,0.00
2013-5-17,68,58,51,44,40,36,71,52,37,29.87,29.48,8,2,13,0.00
2013-5-18,68,57,48,50,44,34,88,63,46,29.97,29.87,3,0,6,0.00
2013-5-19,55,53,51,54,52,49,99,96,88,30.00,29.84,3,0,7,0.12
2013-5-20,79,64,54,67,60,54,100,88,63,29.84,29.62,3,0,7,0.01
2013-5-21,85,72,61,73,66,61,99,83,58,29.64,29.47,4,0,7,0.00
2013-5-22,76,65,55,71,63,54,99,93,82,29.58,29.48,6,0,12,0.35
2013-5-23,70,65,63,70,65,63,100,99,96,29.55,29.41,3,0,8,2.23
2013-5-24,63,53,43,63,53,42,100,98,91,29.57,29.31,7,2,12,0.29
2013-5-25,44,42,40,43,41,39,99,97,88,29.59,29.50,9,3,22,0.59
2013-5-26,59,48,41,45,40,38,92,75,48,29.84,29.54,9,2,20,0.01
2013-5-27,71,56,42,46,40,36,86,58,31,29.89,29.78,5,0,8,0.00
2013-5-28,68,57,48,56,47,36,98,72,40,29.88,29.80,2,0,7,0.10
2013-5-29,76,64,55,70,62,54,99,91,76,29.81,29.66,5,0,10,0.06
2013-5-30,89,75,62,72,66,62,99,77,50,29.77,29.70,2,0,6,0.00
2013-5-31,90,77,67,72,65,58,90,69,37,29.76,29.63,1,0,5,0.00
2013-6-1,86,76,66,72,66,61,90,74,52,29.66,29.54,1,0,5,0.00
2013-6-2,84,75,66,72,68,65,96,80,64,29.56,29.38,3,0,7,0.00
2013-6-3,78,68,58,67,63,48,98,85,67,29.54,29.42,3,0,7,0.69
2013-6-4,72,60,49,50,45,41,76,60,38,29.77,29.54,6,1,12,0.00
2013-6-5,72,60,49,54,47,41,79,62,41,29.87,29.77,4,0,6,0.00
2013-6-6,68,58,50,57,52,46,97,83,66,29.82,29.70,4,0,9,0.15
2013-6-7,58,56,53,58,55,52,98,98,97,29.71,29.36,8,2,13,1.84
2013-6-8,73,61,52,66,58,51,99,89,70,29.72,29.29,7,1,12,0.52
2013-6-9,76,66,55,62,58,54,98,78,52,29.84,29.72,1,0,4,0.00
2013-6-10,69,62,58,64,59,54,98,89,75,29.83,29.54,5,0,12,1.04
2013-6-11,74,63,57,69,61,57,99,94,82,29.54,29.24,6,1,12,0.39
2013-6-12,70,62,58,58,54,52,91,75,55,29.51,29.31,8,1,14,0.00
2013-6-13,58,54,51,55,53,50,98,94,82,29.50,29.23,7,1,18,1.57
2013-6-14,71,57,49,61,54,48,98,90,62,29.53,29.25,6,1,12,0.47
2013-6-15,76,64,54,59,54,48,97,71,40,29.66,29.53,5,0,8,0.00
2013-6-16,75,65,53,63,57,49,89,76,52,29.64,29.41,4,0,9,0.00
2013-6-17,81,69,60,67,62,56,98,79,46,29.58,29.47,7,0,12,0.00
2013-6-18,78,65,59,70,61,56,97,86,65,29.57,29.47,5,0,9,0.16
2013-6-19,72,62,54,57,50,39,95,68,37,29.83,29.55,5,1,8,0.00
2013-6-20,76,63,50,59,52,39,85,68,45,29.92,29.83,3,0,5,0.00
2013-6-21,78,67,56,67,59,53,90,76,60,29.94,29.87,2,0,5,0.00
2013-6-22,80,69,59,65,60,54,87,73,54,29.91,29.77,2,0,7,0.00
2013-6-23,85,73,61,71,65,56,91,77,52,29.83,29.70,4,0,6,0.00
2013-6-24,88,74,66,75,69,62,98,85,59,29.72,29.58,6,0,9,0.67
2013-6-25,86,72,64,76,69,63,99,90,64,29.65,29.44,5,0,9,0.12
2013-6-26,78,72,68,73,69,66,97,91,76,29.49,29.41,3,0,7,0.00
2013-6-27,80,71,65,73,69,65,99,94,76,29.48,29.24,6,0,12,0.40
2013-6-28,80,73,68,72,70,66,99,91,72,29.24,29.11,2,0,6,0.31
2013-6-29,80,72,65,70,67,65,99,86,62,29.36,29.14,4,0,8,0.00
2013-6-30,80,72,68,74,70,67,99,93,81,29.57,29.36,6,0,9,0.00
2013-7-1,72,71,68,72,70,68,99,98,95,29.71,29.56,2,0,6,0.35
2013-7-2,79,73,70,75,72,70,100,95,85,29.83,29.71,2,0,6,0.02
2013-7-3,82,75,70,74,72,69,97,90,77,29.89,29.81,3,0,6,0.00
2013-7-4,84,78,72,76,73,71,99,87,71,29.89,29.79,2,0,5,0.00
2013-7-5,87,79,72,77,73,70,95,82,64,29.85,29.72,3,0,7,0.00
2013-7-6,88,80,73,76,73,71,94,80,62,29.77,29.66,4,0,8,0.00
2013-7-7,88,80,72,78,74,69,94,83,64,29.70,29.56,4,0,8,0.00
2013-7-8,85,76,68,73,69,64,92,78,64,29.68,29.58,4,0,8,0.00
2013-7-9,84,73,66,73,69,64,97,87,66,29.73,29.65,5,0,7,0.00
2013-7-10,80,74,70,77,72,69,98,95,83,29.68,29.45,2,0,8,0.26
2013-7-11,81,73,68,72,69,62,99,88,66,29.59,29.44,2,0,5,0.01
2013-7-12,79,71,64,68,63,58,87,74,65,29.81,29.58,5,1,10,0.04
2013-7-13,74,68,62,71,66,60,97,92,88,29.96,29.80,4,1,10,0.03
2013-7-14,85,77,71,76,73,71,99,88,70,29.98,29.88,3,0,6,0.02
2013-7-15,90,79,72,76,72,68,95,79,55,29.88,29.78,4,0,7,0.00
2013-7-16,90,79,69,74,69,65,89,73,49,29.85,29.78,4,0,7,0.00
2013-7-17,90,80,72,76,71,67,90,75,53,29.85,29.70,2,0,6,0.00
2013-7-18,90,81,73,78,74,70,90,78,57,29.71,29.60,3,0,5,0.00
2013-7-19,92,82,74,78,75,72,95,78,59,29.61,29.42,4,0,9,0.00
2013-7-20,88,80,71,77,72,65,91,78,59,29.50,29.35,4,0,8,0.00
2013-7-21,84,73,64,69,65,56,97,77,39,29.62,29.49,3,0,5,0.04
2013-7-22,81,73,66,73,69,63,98,88,70,29.63,29.48,4,0,7,0.05
2013-7-23,84,74,70,75,72,69,99,94,68,29.48,29.20,5,0,8,1.48
2013-7-24,78,70,60,71,65,53,99,85,62,29.61,29.26,5,1,9,0.00
2013-7-25,65,60,56,60,55,49,94,82,75,29.74,29.60,4,1,9,0.02
2013-7-26,77,66,60,67,61,58,96,86,65,29.72,29.65,4,0,6,0.01
2013-7-27,79,68,60,68,63,59,99,85,59,29.72,29.63,3,0,5,0.00
2013-7-28,76,68,62,69,65,61,99,91,77,29.66,29.60,3,0,5,0.04
2013-7-29,81,71,64,70,64,55,99,81,57,29.74,29.62,4,0,8,0.01
2013-7-30,76,67,58,63,58,53,89,75,56,29.81,29.74,4,0,9,0.00
2013-7-31,78,67,59,64,60,56,94,78,48,29.82,29.70,3,0,5,0.00
2013-8-1,64,62,61,61,60,60,96,95,88,29.71,29.63,0,0,1,0.00
2013-8-2,78,70,63,68,64,61,99,83,59,29.55,29.45,4,0,7,0.05
2013-8-3,76,67,63,67,62,57,97,84,69,29.55,29.48,3,0,6,0.01
2013-8-4,77,64,56,62,58,52,97,81,53,29.62,29.49,6,0,12,0.02
2013-8-5,74,63,54,53,51,45,92,66,39,29.71,29.60,6,1,12,0.00
2013-8-6,77,64,54,61,55,47,88,72,48,29.80,29.71,3,0,6,0.00
2013-8-7,73,65,57,65,61,56,96,86,67,29.82,29.73,5,0,7,0.00
2013-8-8,79,71,67,72,69,65,98,92,75,29.74,29.66,3,0,8,0.01
2013-8-9,76,72,70,75,71,69,99,98,95,29.67,29.43,4,0,7,2.20
2013-8-10,79,70,61,70,64,53,99,82,58,29.70,29.50,5,0,9,0.00
2013-8-11,77,64,53,62,56,49,90,75,51,29.78,29.68,3,0,5,0.00
2013-8-12,79,68,60,64,61,56,96,79,53,29.70,29.58,2,0,4,0.00
2013-8-13,70,66,62,68,65,60,99,95,86,29.59,29.35,0,0,0,0.22
2013-8-14,70,62,54,62,55,52,98,80,57,29.68,29.40,6,1,14,0.01
2013-8-15,72,61,51,58,53,49,95,78,47,29.81,29.68,3,0,7,0.00
2013-8-16,77,64,54,61,55,51,91,75,45,29.87,29.78,0,0,0,0.00
2013-8-17,79,66,57,64,58,54,93,77,50,29.94,29.87,0,0,0,0.00
2013-8-18,73,66,60,66,61,56,94,85,63,29.93,29.78,0,0,0,0.00
2013-8-19,74,67,59,66,62,57,96,86,71,29.78,29.67,2,0,4,0.00
2013-8-20,82,70,61,67,63,60,97,81,53,29.79,29.70,3,0,6,0.00
2013-8-21,83,71,63,69,64,61,95,79,54,29.83,29.70,3,0,6,0.00
2013-8-22,76,70,64,71,67,62,98,92,83,29.72,29.52,2,0,5,0.19
2013-8-23,77,69,62,68,61,49,98,76,55,29.78,29.52,4,1,9,0.01
2013-8-24,76,65,55,59,53,48,91,68,50,30.01,29.78,5,1,8,0.00
2013-8-25,79,65,55,61,56,52,95,73,46,30.05,29.87,3,0,6,0.00
2013-8-26,72,66,61,68,63,56,98,88,71,29.88,29.57,2,0,5,0.15
2013-8-27,80,71,66,71,68,66,99,91,72,29.58,29.47,4,0,7,0.55
2013-8-28,84,71,64,73,67,63,99,88,61,29.57,29.50,3,0,5,0.00
2013-8-29,75,69,64,67,65,62,98,89,73,29.69,29.56,5,0,9,0.00
2013-8-30,79,70,63,70,66,61,98,88,68,29.69,29.51,3,0,6,0.00
2013-8-31,79,73,69,75,71,68,97,94,86,29.51,29.44,2,0,5,0.07
2013-9-1,78,73,70,75,72,70,99,96,89,29.50,29.46,2,0,5,0.03
2013-9-2,78,72,68,74,70,67,99,96,83,29.48,29.34,4,0,8,0.06
2013-9-3,71,66,59,68,64,57,99,92,78,29.53,29.37,3,0,8,0.00
2013-9-4,76,65,55,62,58,54,99,81,54,29.64,29.52,4,0,7,0.00
2013-9-5,70,63,54,61,52,43,91,70,46,29.81,29.56,6,1,9,0.00
2013-9-6,66,55,46,50,44,42,88,69,44,29.92,29.79,4,0,10,0.00
2013-9-7,75,60,48,58,51,44,92,73,48,29.79,29.55,2,0,5,0.00
2013-9-8,75,64,54,64,54,45,88,72,41,29.75,29.47,7,1,14,0.00
2013-9-9,67,56,44,55,48,40,90,74,52,29.91,29.75,3,0,5,0.00
2013-9-10,75,67,59,72,65,55,99,95,86,29.84,29.71,4,0,5,0.07
2013-9-11,90,78,71,80,73,67,99,85,64,29.76,29.62,4,0,8,0.00
2013-9-12,81,72,67,75,69,66,99,92,81,29.62,29.33,6,0,14,0.63
2013-9-13,71,64,53,66,61,49,99,90,74,29.49,29.27,6,1,12,0.03
2013-9-14,62,54,47,53,49,45,95,84,65,29.78,29.48,6,1,12,0.00
2013-9-15,66,53,43,52,48,42,97,82,53,29.88,29.76,3,0,5,0.00
2013-9-16,65,57,48,56,52,45,96,85,66,29.92,29.70,4,0,9,0.02
2013-9-17,63,50,39,45,40,36,91,71,38,30.10,29.92,6,1,8,0.00
2013-9-18,69,54,43,50,46,42,97,77,45,30.02,29.85,2,0,6,0.00
2013-9-19,74,58,47,56,50,46,95,76,42,29.86,29.73,2,0,5,0.00
2013-9-20,76,60,50,61,54,50,98,82,44,29.76,29.66,2,0,5,0.00
2013-9-21,68,62,55,66,61,54,98,94,83,29.68,29.32,4,1,13,0.14
2013-9-22,66,58,49,65,54,42,99,86,66,29.56,29.28,6,1,13,1.28
2013-9-23,59,50,41,46,42,39,94,77,58,29.72,29.56,6,1,12,0.00
2013-9-24,65,52,40,48,43,38,93,73,46,29.72,29.54,4,1,8,0.00
2013-9-25,68,55,46,53,48,43,92,79,54,29.62,29.55,4,0,6,0.00
2013-9-26,66,57,51,54,51,48,95,83,62,29.77,29.62,4,0,7,0.00
2013-9-27,60,54,48,53,50,46,96,87,74,29.95,29.77,4,0,6,0.00
2013-9-28,71,57,47,57,51,46,98,82,50,30.01,29.91,4,0,7,0.00
2013-9-29,68,56,49,57,52,49,98,88,62,29.91,29.75,3,0,6,0.00
2013-9-30,70,57,46,57,51,45,96,82,55,29.76,29.64,3,0,5,0.00
2013-10-1,74,60,50,60,55,49,97,83,57,29.67,29.57,4,0,8,0.00
2013-10-2,76,64,54,64,59,53,98,84,62,29.67,29.57,3,0,7,0.00
2013-10-3,73,61,52,57,53,49,92,76,45,29.79,29.67,3,0,5,0.00
2013-10-4,77,63,56,68,60,55,96,88,70,29.73,29.65,4,0,7,0.00
2013-10-5,72,64,59,65,61,57,96,91,78,29.76,29.69,2,0,4,0.02
2013-10-6,63,59,56,62,59,56,99,99,96,29.80,29.72,5,1,10,0.94
2013-10-7,71,63,54,68,62,53,100,98,89,29.72,29.42,5,1,12,0.54
2013-10-8,62,53,47,53,45,40,97,77,50,30.02,29.60,6,1,12,0.00
2013-10-9,60,52,44,47,43,39,87,73,53,30.11,29.99,6,1,10,0.00
2013-10-10,59,52,46,53,48,43,91,86,79,30.00,29.80,5,1,8,0.00
2013-10-11,67,59,52,59,52,42,92,80,61,29.80,29.73,6,1,12,0.00
2013-10-12,69,58,52,56,50,42,90,76,61,29.99,29.78,8,2,20,0.00
2013-10-13,62,53,48,51,48,46,94,84,66,30.07,29.98,6,1,12,0.00
2013-10-14,62,51,43,51,47,42,98,86,58,30.05,29.92,4,0,5,0.00
2013-10-15,68,56,49,57,50,41,98,81,60,29.94,29.80,4,0,6,0.00
2013-10-16,60,54,49,55,50,45,96,87,76,29.80,29.59,3,0,6,0.00
2013-10-17,70,62,56,60,58,55,98,88,61,29.59,29.34,4,0,8,0.01
2013-10-18,64,57,51,61,48,39,98,74,49,29.61,29.30,5,1,10,0.04
2013-10-19,62,52,44,51,44,39,96,74,45,29.64,29.40,4,0,7,0.09
2013-10-20,57,50,44,51,42,36,97,74,49,29.72,29.39,5,1,12,0.01
2013-10-21,62,50,41,45,40,36,87,69,42,29.81,29.65,3,0,7,0.00
2013-10-22,62,50,43,51,46,38,97,84,62,29.65,29.40,4,0,7,0.00
2013-10-23,50,43,35,39,35,31,89,74,49,29.47,29.28,4,0,8,0.00
2013-10-24,50,41,34,37,32,27,91,70,44,29.62,29.39,6,1,12,0.00
2013-10-25,48,40,34,33,31,28,84,70,53,29.87,29.62,6,1,13,0.00
2013-10-26,50,42,33,34,32,28,93,68,43,29.86,29.56,6,1,12,0.00
2013-10-27,53,46,40,36,32,29,75,60,42,29.77,29.50,6,1,12,0.00
2013-10-28,56,44,35,37,33,29,85,66,45,30.00,29.76,6,0,12,0.00
2013-10-29,48,41,35,32,27,25,73,60,45,30.10,30.00,4,0,8,0.00
2013-10-30,50,42,35,43,35,25,95,75,63,30.03,29.86,1,0,2,0.00
2013-10-31,60,51,41,57,50,40,98,96,91,29.91,29.47,4,0,7,0.19
2013-11-1,66,60,55,62,56,47,98,86,64,29.47,29.16,7,2,14,0.27
2013-11-2,63,52,45,50,45,41,91,78,51,29.43,29.27,4,0,9,0.01
2013-11-3,45,38,28,41,31,17,92,77,60,30.12,29.43,8,2,15,0.00
2013-11-4,42,33,24,21,17,14,76,54,32,30.35,30.12,6,1,10,0.00
2013-11-5,50,40,30,38,31,18,88,71,57,30.36,30.17,4,0,7,0.00
2013-11-6,56,48,39,48,43,38,97,84,65,30.17,29.73,5,1,8,0.00
2013-11-7,58,50,37,55,47,32,97,92,82,29.73,29.38,9,2,13,0.14
2013-11-8,44,37,33,33,30,27,88,75,54,29.83,29.53,8,1,12,0.01
2013-11-9,44,38,29,31,28,25,86,68,48,29.93,29.67,4,0,9,0.00
2013-11-10,54,43,40,41,35,30,91,73,52,29.67,29.44,7,1,14,0.03
2013-11-11,47,42,35,33,30,26,79,62,45,29.83,29.60,9,1,14,0.00
2013-11-12,46,31,25,36,24,16,94,76,59,29.92,29.59,11,3,16,0.02
2013-11-13,33,27,22,19,16,13,79,64,45,30.02,29.91,8,2,14,0.00
2013-11-14,49,38,27,22,18,15,72,47,27,29.91,29.80,4,1,7,0.01
2013-11-15,56,45,35,25,21,15,51,39,25,29.90,29.81,5,1,9,0.00
2013-11-16,58,47,41,42,34,22,96,64,35,29.99,29.88,4,0,6,0.00
2013-11-17,57,51,42,57,50,41,99,98,96,29.95,29.46,6,1,9,0.02
2013-11-18,61,55,44,59,42,26,99,65,40,29.45,29.23,9,3,15,0.20
2013-11-19,44,37,29,30,25,19,70,62,51,30.00,29.38,10,5,22,0.00
2013-11-20,39,30,24,19,17,13,74,59,36,30.31,30.01,8,2,16,0.00
2013-11-21,46,35,24,36,24,14,82,65,45,30.32,30.07,4,0,6,0.00
2013-11-22,49,45,41,47,43,36,98,93,82,30.07,29.53,5,0,7,0.13
2013-11-23,49,36,24,46,26,10,92,66,40,29.68,29.53,10,3,20,0.00
2013-11-24,24,20,17,12,5,-2,70,52,33,29.98,29.58,14,5,26,0.00
2013-11-25,30,22,12,16,11,7,82,63,46,30.13,29.99,6,1,10,0.00
2013-11-26,37,31,28,36,23,14,98,71,54,30.01,29.55,9,1,16,0.38
2013-11-27,57,42,31,57,40,28,99,96,85,29.55,28.98,12,4,20,1.95
2013-11-28,31,26,22,28,16,11,89,66,52,30.10,29.30,9,3,18,0.00
2013-11-29,25,23,21,17,15,12,73,71,68,30.42,30.35,6,2,10,0.00
2013-11-30,30,24,16,24,13,8,80,66,42,30.45,30.08,6,1,8,0.00
2013-12-1,43,36,29,35,31,22,92,81,72,30.08,29.69,4,0,4,0.00
2013-12-2,41,35,32,34,31,28,96,88,75,29.69,29.58,3,0,5,0.00
2013-12-3,45,36,29,38,33,28,97,89,74,29.68,29.55,2,0,5,0.01
2013-12-4,48,38,30,36,32,27,90,80,60,29.84,29.68,4,0,6,0.00
2013-12-5,53,48,41,52,47,36,99,96,83,29.83,29.61,5,1,12,0.04
2013-12-6,53,42,32,53,40,31,99,94,80,29.81,29.54,8,2,13,0.41
2013-12-7,35,30,25,31,26,18,96,85,71,30.18,29.75,7,2,10,0.10
2013-12-8,28,25,20,22,19,16,90,79,69,30.28,30.11,6,0,10,0.00
2013-12-9,33,29,24,32,28,22,98,96,90,30.11,29.62,8,1,14,0.01
2013-12-10,32,28,20,31,27,18,98,95,92,29.73,29.50,4,0,6,0.00
2013-12-11,26,23,19,19,17,14,92,78,71,29.94,29.73,6,1,10,0.00
2013-12-12,22,18,14,17,10,6,88,72,57,30.00,29.79,7,1,12,0.00
2013-12-13,29,22,16,18,12,6,80,66,58,30.04,29.73,8,2,15,0.00
2013-12-14,20,16,12,18,12,9,94,86,69,30.21,29.61,11,3,23,0.00
2013-12-15,29,26,20,28,25,18,97,96,92,29.61,29.20,12,2,24,0.00
2013-12-16,25,21,14,23,13,7,92,74,56,29.89,29.45,7,1,13,0.00
2013-12-17,18,15,11,16,12,6,93,86,72,29.91,29.63,6,1,9,0.00
2013-12-18,30,24,16,23,19,14,93,83,73,29.81,29.61,7,1,12,0.00
2013-12-19,42,32,24,28,24,19,81,70,51,29.83,29.68,6,1,9,0.13
2013-12-20,50,41,33,34,30,26,79,67,51,29.79,29.63,5,1,8,0.42
2013-12-21,56,48,40,49,42,34,95,79,65,29.67,29.56,5,1,7,0.06
2013-12-22,64,59,48,61,56,46,99,90,79,29.62,29.43,8,2,15,0.03
2013-12-23,58,49,34,55,48,28,98,95,80,29.79,29.55,11,2,20,0.64
2013-12-24,34,28,21,28,21,11,85,75,61,29.96,29.75,10,3,16,0.00
2013-12-25,21,17,12,11,7,4,77,65,52,30.19,29.95,9,2,15,0.00
2013-12-26,29,25,20,25,21,11,93,85,70,30.13,29.82,4,0,8,0.01
2013-12-27,33,28,22,24,21,17,90,77,57,30.00,29.91,5,0,8,0.01
2013-12-28,45,36,27,30,26,22,84,66,50,29.94,29.73,6,1,10,0.01
2013-12-29,42,38,34,38,32,27,97,79,58,29.73,29.12,8,2,14,0.86
2013-12-30,38,28,14,34,23,8,97,83,67,29.86,29.32,9,2,14,0.00
2013-12-31,24,18,11,21,12,7,89,76,64,29.92,29.73,6,1,10,0.00
2014-1-1,26,21,16,19,13,8,88,70,56,30.07,29.92,5,1,8,0.00
2014-1-2,22,16,8,18,14,5,90,89,86,29.98,29.42,10,4,20,0.00